Nbp Island — V2FH3 — position and weather

sailwx.info

Track history (hours):
 
Tides and Currents Weather Stations Pressure Air Temp Water Temp Dewpoint Dewpoint Depression Visibility Wind Speed Wind Dir Waves Ship Positions

Nbp Island

Last reported at 2015-Apr-01 05:33 UTC. Time now 2015-Apr-01 10:39 UTC.
Position N 59°38' E 023°24'.

Length 107 m; draft 7.3 m.

Type: Cargo ship. MMSI: 305674000.

Date/timePositionNaut miles runAvg speedWind from/ knotsBaromVisibWave heightAir tempDewpointWater temp
2015-Apr-01 05:33N 59°38' E 023°24'1211.6
2015-Apr-01 04:32N 59°42' E 023°46'1111.3
2015-Apr-01 03:33N 59°45' E 024°08'1311.4
2015-Apr-01 02:22N 59°48' E 024°33'4811.1
2015-Mar-31 22:04N 60°03' E 026°04'611.5
2015-Mar-31 21:33N 60°07' E 026°13'1110.8
2015-Mar-31 20:33N 60°15' E 026°26'9 8.6
2015-Mar-31 19:33N 60°23' E 026°17'2 2.2
2015-Mar-31 18:27N 60°25' E 026°15'0 0.0
2015-Mar-31 17:33N 60°25' E 026°15'0 0.0
2015-Mar-31 15:18N 60°25' E 026°15'0 0.0
2015-Mar-31 14:33N 60°25' E 026°15'0 0.0
2015-Mar-31 13:33N 60°25' E 026°15'0 0.0
2015-Mar-31 12:33N 60°25' E 026°15'0 0.0
2015-Mar-31 11:18N 60°25' E 026°15'0 0.0
2015-Mar-31 10:33N 60°25' E 026°15'0 0.0
2015-Mar-31 09:33N 60°25' E 026°15'0 0.0
2015-Mar-31 08:33N 60°25' E 026°15'0 0.0
2015-Mar-31 07:33N 60°25' E 026°15'0 0.0
2015-Mar-31 06:15N 60°25' E 026°15'0 0.0
2015-Mar-31 05:24N 60°25' E 026°15'0 0.0
2015-Mar-31 04:27N 60°25' E 026°15'0 0.0
2015-Mar-31 03:30N 60°25' E 026°15'0 0.0
2015-Mar-31 02:12N 60°25' E 026°15'0 0.0
2015-Mar-31 01:33N 60°25' E 026°15'0 0.0
2015-Mar-31 00:24N 60°25' E 026°15'0 0.0
2015-Mar-30 23:30N 60°25' E 026°15'0 0.0
2015-Mar-30 22:33N 60°25' E 026°15'0 0.0
2015-Mar-30 21:33N 60°25' E 026°15'0 0.0
2015-Mar-30 20:33N 60°25' E 026°15'0 0.0
2015-Mar-30 19:33N 60°25' E 026°15'0 0.4
2015-Mar-30 18:34N 60°25' E 026°16'2 1.6
2015-Mar-30 17:33N 60°23' E 026°17'10 9.5
2015-Mar-30 16:33N 60°15' E 026°26'1110.8
2015-Mar-30 15:33N 60°06' E 026°14'5410.4
2015-Mar-30 10:21N 59°44' E 024°35'910.9
2015-Mar-30 09:33N 59°42' E 024°18'1210.8
2015-Mar-30 08:25N 59°38' E 023°55'34911.1
2015-Mar-29 01:04N 55°45' E 015°49'611.9
2015-Mar-29 00:33N 55°42' E 015°39'1211.9
2015-Mar-28 23:33N 55°36' E 015°21'1211.8
2015-Mar-28 22:33N 55°30' E 015°03'1211.8
2015-Mar-28 21:33N 55°25' E 014°45'1211.7
2015-Mar-28 20:33N 55°17' E 014°30'1211.7
2015-Mar-28 19:33N 55°07' E 014°17'1111.4
2015-Mar-28 18:33N 54°60' E 014°03'1211.6
2015-Mar-28 17:33N 54°56' E 013°44'1211.5
2015-Mar-28 16:33N 54°52' E 013°25'1211.6
2015-Mar-28 15:33N 54°48' E 013°05'1211.7
2015-Mar-28 14:33N 54°44' E 012°46'1211.6
2015-Mar-28 13:33N 54°38' E 012°30'1211.6
2015-Mar-28 12:33N 54°30' E 012°16'1110.6
2015-Mar-28 11:33N 54°24' E 012°00'1110.8
2015-Mar-28 10:33N 54°26' E 011°42'1111.4
2015-Mar-28 09:33N 54°31' E 011°25'1211.6
2015-Mar-28 08:33N 54°35' E 011°06'1111.2
2015-Mar-28 07:33N 54°34' E 010°46'1111.4
2015-Mar-28 06:33N 54°31' E 010°27'1110.6
2015-Mar-28 05:33N 54°25' E 010°13'4 3.9
2015-Mar-28 04:33N 54°22' E 010°09'3 3.4
2015-Mar-28 03:34N 54°22' E 010°03'8 7.5
2015-Mar-28 02:33N 54°22' E 009°50'8 7.7
2015-Mar-28 01:30N 54°17' E 009°39'3 2.6
2015-Mar-28 00:30N 54°15' E 009°37'7 5.7
2015-Mar-27 23:21N 54°11' E 009°28'6 7.4
2015-Mar-27 22:31N 54°07' E 009°20'5 5.1
2015-Mar-27 21:33N 54°02' E 009°18'6 6.3
2015-Mar-27 20:33N 53°56' E 009°13'4 4.0
2015-Mar-27 19:33N 53°54' E 009°09'2 2.2
2015-Mar-27 18:32N 53°53' E 009°05'0 0.0
2015-Mar-27 17:32N 53°53' E 009°05'3 3.1
2015-Mar-27 16:33N 53°51' E 009°01'1212.5
2015-Mar-27 15:33N 53°55' E 008°40'1313.2
2015-Mar-27 14:33N 53°59' E 008°19'1212.1
2015-Mar-27 13:32N 53°58' E 007°58'1312.7
2015-Mar-27 12:33N 53°55' E 007°38'1312.7
2015-Mar-27 11:33N 53°52' E 007°17'3511.7
2015-Mar-27 08:32N 53°44' E 006°18'1111.1
2015-Mar-27 07:33N 53°40' E 006°01'1110.9
2015-Mar-27 06:33N 53°37' E 005°44'1110.9
2015-Mar-27 05:34N 53°33' E 005°26'1110.8
2015-Mar-27 04:34N 53°30' E 005°09'1110.9
2015-Mar-27 03:34N 53°26' E 004°52'1110.2
2015-Mar-27 02:27N 53°18' E 004°38'1110.6
2015-Mar-27 01:25N 53°09' E 004°30'911.0
2015-Mar-27 00:34N 53°00' E 004°22'1111.1
2015-Mar-26 23:33N 52°50' E 004°14'1111.5
2015-Mar-26 22:33N 52°42' E 004°02'1212.1
2015-Mar-26 21:32N 52°33' E 003°47'7812.7
2015-Mar-26 15:25N 51°35' E 002°23'1111.8
2015-Mar-26 14:31N 51°27' E 002°12'1110.9
2015-Mar-26 13:34N 51°17' E 002°06'1010.1
2015-Mar-26 12:34N 51°10' E 001°55'10 9.8
2015-Mar-26 11:33N 51°04' E 001°43'10 9.9
2015-Mar-26 10:33N 50°56' E 001°33'275 6.0
2015-Mar-24 12:33N 47°08' W 002°22'14 2.2
2015-Mar-24 06:12N 47°18' W 002°07'0 0.0
2015-Mar-24 05:15N 47°18' W 002°07'0 0.0
2015-Mar-24 03:15N 47°18' W 002°07'0 0.0
2015-Mar-24 02:09N 47°18' W 002°07'0 0.0
2015-Mar-24 00:33N 47°18' W 002°07'0 0.0
2015-Mar-23 08:06N 47°18' W 002°07'0 0.0
2015-Mar-23 07:30N 47°18' W 002°07'0 0.2
2015-Mar-23 06:33N 47°18' W 002°08'  
Track history (hours):
 
Tides and Currents Weather Stations Pressure Air Temp Water Temp Dewpoint Dewpoint Depression Visibility Wind Speed Wind Dir Waves Ship Positions

Nbp Island

Last reported at 2015-Apr-01 05:33 UTC. Time now 2015-Apr-01 10:39 UTC.
Position N 59°38' E 023°24'.

Length 107 m; draft 7.3 m.

Type: Cargo ship. MMSI: 305674000.

Date/timePositionNaut miles runAvg speedWind from/ knotsBaromVisibWave heightAir tempDewpointWater temp
2015-Apr-01 05:33N 59°38' E 023°24'1211.6
2015-Apr-01 04:32N 59°42' E 023°46'1111.3
2015-Apr-01 03:33N 59°45' E 024°08'1311.4
2015-Apr-01 02:22N 59°48' E 024°33'4811.1
2015-Mar-31 22:04N 60°03' E 026°04'611.5
2015-Mar-31 21:33N 60°07' E 026°13'1110.8
2015-Mar-31 20:33N 60°15' E 026°26'9 8.6
2015-Mar-31 19:33N 60°23' E 026°17'2 2.2
2015-Mar-31 18:27N 60°25' E 026°15'0 0.0
2015-Mar-31 17:33N 60°25' E 026°15'0 0.0
2015-Mar-31 15:18N 60°25' E 026°15'0 0.0
2015-Mar-31 14:33N 60°25' E 026°15'0 0.0
2015-Mar-31 13:33N 60°25' E 026°15'0 0.0
2015-Mar-31 12:33N 60°25' E 026°15'0 0.0
2015-Mar-31 11:18N 60°25' E 026°15'0 0.0
2015-Mar-31 10:33N 60°25' E 026°15'0 0.0
2015-Mar-31 09:33N 60°25' E 026°15'0 0.0
2015-Mar-31 08:33N 60°25' E 026°15'0 0.0
2015-Mar-31 07:33N 60°25' E 026°15'0 0.0
2015-Mar-31 06:15N 60°25' E 026°15'0 0.0
2015-Mar-31 05:24N 60°25' E 026°15'0 0.0
2015-Mar-31 04:27N 60°25' E 026°15'0 0.0
2015-Mar-31 03:30N 60°25' E 026°15'0 0.0
2015-Mar-31 02:12N 60°25' E 026°15'0 0.0
2015-Mar-31 01:33N 60°25' E 026°15'0 0.0
2015-Mar-31 00:24N 60°25' E 026°15'0 0.0
2015-Mar-30 23:30N 60°25' E 026°15'0 0.0
2015-Mar-30 22:33N 60°25' E 026°15'0 0.0
2015-Mar-30 21:33N 60°25' E 026°15'0 0.0
2015-Mar-30 20:33N 60°25' E 026°15'0 0.0
2015-Mar-30 19:33N 60°25' E 026°15'0 0.4
2015-Mar-30 18:34N 60°25' E 026°16'2 1.6
2015-Mar-30 17:33N 60°23' E 026°17'10 9.5
2015-Mar-30 16:33N 60°15' E 026°26'1110.8
2015-Mar-30 15:33N 60°06' E 026°14'5410.4
2015-Mar-30 10:21N 59°44' E 024°35'910.9
2015-Mar-30 09:33N 59°42' E 024°18'1210.8
2015-Mar-30 08:25N 59°38' E 023°55'34911.1
2015-Mar-29 01:04N 55°45' E 015°49'611.9
2015-Mar-29 00:33N 55°42' E 015°39'1211.9
2015-Mar-28 23:33N 55°36' E 015°21'1211.8
2015-Mar-28 22:33N 55°30' E 015°03'1211.8
2015-Mar-28 21:33N 55°25' E 014°45'1211.7
2015-Mar-28 20:33N 55°17' E 014°30'1211.7
2015-Mar-28 19:33N 55°07' E 014°17'1111.4
2015-Mar-28 18:33N 54°60' E 014°03'1211.6
2015-Mar-28 17:33N 54°56' E 013°44'1211.5
2015-Mar-28 16:33N 54°52' E 013°25'1211.6
2015-Mar-28 15:33N 54°48' E 013°05'1211.7
2015-Mar-28 14:33N 54°44' E 012°46'1211.6
2015-Mar-28 13:33N 54°38' E 012°30'1211.6
2015-Mar-28 12:33N 54°30' E 012°16'1110.6
2015-Mar-28 11:33N 54°24' E 012°00'1110.8
2015-Mar-28 10:33N 54°26' E 011°42'1111.4
2015-Mar-28 09:33N 54°31' E 011°25'1211.6
2015-Mar-28 08:33N 54°35' E 011°06'1111.2
2015-Mar-28 07:33N 54°34' E 010°46'1111.4
2015-Mar-28 06:33N 54°31' E 010°27'1110.6
2015-Mar-28 05:33N 54°25' E 010°13'4 3.9
2015-Mar-28 04:33N 54°22' E 010°09'3 3.4
2015-Mar-28 03:34N 54°22' E 010°03'8 7.5
2015-Mar-28 02:33N 54°22' E 009°50'8 7.7
2015-Mar-28 01:30N 54°17' E 009°39'3 2.6
2015-Mar-28 00:30N 54°15' E 009°37'7 5.7
2015-Mar-27 23:21N 54°11' E 009°28'6 7.4
2015-Mar-27 22:31N 54°07' E 009°20'5 5.1
2015-Mar-27 21:33N 54°02' E 009°18'6 6.3
2015-Mar-27 20:33N 53°56' E 009°13'4 4.0
2015-Mar-27 19:33N 53°54' E 009°09'2 2.2
2015-Mar-27 18:32N 53°53' E 009°05'0 0.0
2015-Mar-27 17:32N 53°53' E 009°05'3 3.1
2015-Mar-27 16:33N 53°51' E 009°01'1212.5
2015-Mar-27 15:33N 53°55' E 008°40'1313.2
2015-Mar-27 14:33N 53°59' E 008°19'1212.1
2015-Mar-27 13:32N 53°58' E 007°58'1312.7
2015-Mar-27 12:33N 53°55' E 007°38'1312.7
2015-Mar-27 11:33N 53°52' E 007°17'3511.7
2015-Mar-27 08:32N 53°44' E 006°18'1111.1
2015-Mar-27 07:33N 53°40' E 006°01'1110.9
2015-Mar-27 06:33N 53°37' E 005°44'1110.9
2015-Mar-27 05:34N 53°33' E 005°26'1110.8
2015-Mar-27 04:34N 53°30' E 005°09'1110.9
2015-Mar-27 03:34N 53°26' E 004°52'1110.2
2015-Mar-27 02:27N 53°18' E 004°38'1110.6
2015-Mar-27 01:25N 53°09' E 004°30'911.0
2015-Mar-27 00:34N 53°00' E 004°22'1111.1
2015-Mar-26 23:33N 52°50' E 004°14'1111.5
2015-Mar-26 22:33N 52°42' E 004°02'1212.1
2015-Mar-26 21:32N 52°33' E 003°47'7812.7
2015-Mar-26 15:25N 51°35' E 002°23'1111.8
2015-Mar-26 14:31N 51°27' E 002°12'1110.9
2015-Mar-26 13:34N 51°17' E 002°06'1010.1
2015-Mar-26 12:34N 51°10' E 001°55'10 9.8
2015-Mar-26 11:33N 51°04' E 001°43'10 9.9
2015-Mar-26 10:33N 50°56' E 001°33'275 6.0
2015-Mar-24 12:33N 47°08' W 002°22'14 2.2
2015-Mar-24 06:12N 47°18' W 002°07'0 0.0
2015-Mar-24 05:15N 47°18' W 002°07'0 0.0
2015-Mar-24 03:15N 47°18' W 002°07'0 0.0
2015-Mar-24 02:09N 47°18' W 002°07'0 0.0
2015-Mar-24 00:33N 47°18' W 002°07'0 0.0
2015-Mar-23 08:06N 47°18' W 002°07'0 0.0
2015-Mar-23 07:30N 47°18' W 002°07'0 0.2
2015-Mar-23 06:33N 47°18' W 002°08'  

Dump ship's entire track history